SXS54R LTAI-LTCG
Flight info
| Callsign | SXS54R |
|---|---|
| Flight time | 1h 27m |
| Altitude | 37000 |
| Route | TEWHE UR55 MUT UT339 SIV UT284 ARSUG UW71 TEMEL |
| Aircraft | B738/M-SD/L |
Departure
| Time | 2026-05-07 18:04 |
|---|---|
| Airport | Antalya International Airport (LTAI) |
Arrival
| Time | 2026-05-07 19:31 |
|---|---|
| Airport | Trabzon International Airport (LTCG) |
| Time | Latitude | Longitude | Altitude | Speed | Heading |
|---|---|---|---|---|---|
| 2026-05-07 17:20 | 36.91582 | 30.79831 | 185 ft | 0 kts | 276° |
| 2026-05-07 17:46 | 36.91581 | 30.79843 | 185 ft | 3 kts | 276° |
| 2026-05-07 17:46 | 36.91579 | 30.79868 | 185 ft | 3 kts | 272° |
| 2026-05-07 17:47 | 36.91579 | 30.79893 | 185 ft | 3 kts | 267° |
| 2026-05-07 17:47 | 36.91581 | 30.79918 | 185 ft | 3 kts | 258° |
| 2026-05-07 17:47 | 36.91585 | 30.79939 | 185 ft | 1 kts | 247° |
| 2026-05-07 17:47 | 36.91586 | 30.79942 | 185 ft | 0 kts | 246° |
| 2026-05-07 17:51 | 36.91585 | 30.79940 | 185 ft | 1 kts | 239° |
| 2026-05-07 17:51 | 36.91566 | 30.79927 | 185 ft | 6 kts | 196° |
| 2026-05-07 17:51 | 36.91503 | 30.79916 | 185 ft | 12 kts | 186° |
| 2026-05-07 17:51 | 36.91414 | 30.79903 | 185 ft | 13 kts | 187° |
| 2026-05-07 17:52 | 36.91325 | 30.79895 | 185 ft | 13 kts | 184° |
| 2026-05-07 17:52 | 36.91229 | 30.79887 | 185 ft | 14 kts | 183° |
| 2026-05-07 17:52 | 36.91129 | 30.79875 | 185 ft | 15 kts | 187° |
| 2026-05-07 17:52 | 36.91025 | 30.79855 | 185 ft | 15 kts | 189° |
| 2026-05-07 17:53 | 36.90938 | 30.79837 | 185 ft | 10 kts | 200° |
| 2026-05-07 17:53 | 36.90891 | 30.79766 | 185 ft | 13 kts | 225° |
| 2026-05-07 17:53 | 36.90800 | 30.79731 | 185 ft | 14 kts | 186° |
| 2026-05-07 17:53 | 36.90706 | 30.79717 | 185 ft | 13 kts | 186° |
| 2026-05-07 17:54 | 36.90610 | 30.79704 | 185 ft | 16 kts | 186° |
| 2026-05-07 17:54 | 36.90505 | 30.79690 | 185 ft | 13 kts | 186° |
| 2026-05-07 17:54 | 36.90423 | 30.79715 | 185 ft | 13 kts | 130° |
| 2026-05-07 17:54 | 36.90399 | 30.79822 | 185 ft | 14 kts | 96° |
| 2026-05-07 17:55 | 36.90388 | 30.79949 | 185 ft | 15 kts | 96° |
| 2026-05-07 17:55 | 36.90377 | 30.80078 | 185 ft | 14 kts | 96° |
| 2026-05-07 17:55 | 36.90365 | 30.80209 | 185 ft | 15 kts | 96° |
| 2026-05-07 17:55 | 36.90354 | 30.80335 | 185 ft | 14 kts | 96° |
| 2026-05-07 17:56 | 36.90343 | 30.80454 | 185 ft | 13 kts | 96° |
| 2026-05-07 17:56 | 36.90333 | 30.80566 | 185 ft | 13 kts | 96° |
| 2026-05-07 17:56 | 36.90324 | 30.80672 | 185 ft | 12 kts | 96° |
| 2026-05-07 17:56 | 36.90274 | 30.80740 | 185 ft | 12 kts | 161° |
| 2026-05-07 17:57 | 36.90198 | 30.80770 | 185 ft | 11 kts | 179° |
| 2026-05-07 17:57 | 36.90140 | 30.80764 | 185 ft | 14 kts | 186° |
| 2026-05-07 17:57 | 36.89997 | 30.80745 | 185 ft | 15 kts | 186° |
| 2026-05-07 17:57 | 36.89889 | 30.80730 | 185 ft | 16 kts | 186° |
| 2026-05-07 17:58 | 36.89769 | 30.80714 | 185 ft | 18 kts | 186° |
| 2026-05-07 17:58 | 36.89639 | 30.80696 | 185 ft | 19 kts | 186° |
| 2026-05-07 17:58 | 36.89511 | 30.80679 | 185 ft | 18 kts | 187° |
| 2026-05-07 17:58 | 36.89390 | 30.80662 | 185 ft | 17 kts | 186° |
| 2026-05-07 17:59 | 36.89276 | 30.80647 | 185 ft | 16 kts | 186° |
| 2026-05-07 17:59 | 36.89168 | 30.80631 | 185 ft | 15 kts | 187° |
| 2026-05-07 17:59 | 36.89061 | 30.80616 | 185 ft | 16 kts | 186° |
| 2026-05-07 17:59 | 36.88950 | 30.80601 | 185 ft | 17 kts | 186° |
| 2026-05-07 18:00 | 36.88814 | 30.80582 | 185 ft | 21 kts | 187° |
| 2026-05-07 18:00 | 36.88676 | 30.80563 | 185 ft | 18 kts | 187° |
| 2026-05-07 18:00 | 36.88551 | 30.80546 | 185 ft | 18 kts | 187° |
| 2026-05-07 18:00 | 36.88433 | 30.80530 | 185 ft | 17 kts | 186° |
| 2026-05-07 18:01 | 36.88322 | 30.80515 | 185 ft | 16 kts | 186° |
| 2026-05-07 18:01 | 36.88217 | 30.80500 | 185 ft | 15 kts | 186° |
| 2026-05-07 18:01 | 36.88143 | 30.80507 | 185 ft | 10 kts | 150° |
| 2026-05-07 18:01 | 36.88114 | 30.80567 | 185 ft | 5 kts | 98° |
| 2026-05-07 18:02 | 36.88110 | 30.80675 | 185 ft | 10 kts | 71° |
| 2026-05-07 18:02 | 36.88160 | 30.80731 | 185 ft | 10 kts | 9° |
| 2026-05-07 18:02 | 36.88181 | 30.80734 | 185 ft | 0 kts | 5° |
| 2026-05-07 18:03 | 36.88184 | 30.80734 | 185 ft | 4 kts | 5° |
| 2026-05-07 18:03 | 36.88393 | 30.80763 | 185 ft | 65 kts | 5° |
| 2026-05-07 18:03 | 36.89082 | 30.80857 | 185 ft | 131 kts | 7° |
| 2026-05-07 18:03 | 36.90154 | 30.81005 | 398 ft | 169 kts | 8° |
| 2026-05-07 18:04 | 36.91321 | 30.81220 | 1202 ft | 172 kts | 15° |
| 2026-05-07 18:04 | 36.92463 | 30.81732 | 2044 ft | 176 kts | 22° |
| 2026-05-07 18:04 | 36.93622 | 30.82360 | 2697 ft | 191 kts | 25° |
| 2026-05-07 18:04 | 36.94890 | 30.83116 | 3144 ft | 214 kts | 25° |
| 2026-05-07 18:05 | 36.96240 | 30.83952 | 3940 ft | 216 kts | 26° |
| 2026-05-07 18:05 | 36.97595 | 30.84836 | 4725 ft | 225 kts | 29° |
| 2026-05-07 18:05 | 36.98779 | 30.86197 | 5361 ft | 240 kts | 57° |
| 2026-05-07 18:05 | 36.99338 | 30.88200 | 6103 ft | 252 kts | 83° |
| 2026-05-07 18:06 | 36.99167 | 30.90352 | 6953 ft | 259 kts | 102° |
| 2026-05-07 18:06 | 36.98626 | 30.92533 | 7714 ft | 267 kts | 108° |
| 2026-05-07 18:06 | 36.98113 | 30.94789 | 7819 ft | 269 kts | 100° |
| 2026-05-07 18:06 | 36.97821 | 30.97087 | 7885 ft | 266 kts | 94° |
| 2026-05-07 18:07 | 36.97700 | 30.99381 | 7896 ft | 263 kts | 90° |
| 2026-05-07 18:07 | 36.97563 | 31.01653 | 7902 ft | 262 kts | 94° |
| 2026-05-07 18:07 | 36.97355 | 31.03954 | 8072 ft | 276 kts | 94° |
| 2026-05-07 18:07 | 36.97140 | 31.06345 | 8982 ft | 275 kts | 94° |
| 2026-05-07 18:08 | 36.96927 | 31.08735 | 9828 ft | 279 kts | 93° |
| 2026-05-07 18:08 | 36.96818 | 31.11153 | 10555 ft | 286 kts | 88° |
| 2026-05-07 18:08 | 36.96829 | 31.13697 | 11084 ft | 302 kts | 86° |
| 2026-05-07 18:08 | 36.96879 | 31.16416 | 11450 ft | 323 kts | 86° |
| 2026-05-07 18:09 | 36.96904 | 31.19312 | 11811 ft | 342 kts | 87° |
| 2026-05-07 18:09 | 36.96912 | 31.22348 | 12350 ft | 355 kts | 87° |
| 2026-05-07 18:09 | 36.96915 | 31.25458 | 13063 ft | 361 kts | 87° |
| 2026-05-07 18:09 | 36.96916 | 31.28610 | 13793 ft | 366 kts | 86° |
| 2026-05-07 18:10 | 36.96920 | 31.31820 | 14500 ft | 371 kts | 86° |
| 2026-05-07 18:10 | 36.96932 | 31.35073 | 15196 ft | 377 kts | 86° |
| 2026-05-07 18:10 | 36.96943 | 31.38369 | 15870 ft | 382 kts | 86° |
| 2026-05-07 18:10 | 36.96947 | 31.41667 | 16501 ft | 388 kts | 86° |
| 2026-05-07 18:11 | 36.96946 | 31.45061 | 17133 ft | 393 kts | 86° |
| 2026-05-07 18:11 | 36.96945 | 31.47372 | 17562 ft | 396 kts | 86° |
| 2026-05-07 18:11 | 36.96971 | 31.51974 | 18381 ft | 402 kts | 85° |
| 2026-05-07 18:11 | 36.96993 | 31.55486 | 18994 ft | 406 kts | 85° |
| 2026-05-07 18:12 | 36.97012 | 31.59037 | 19594 ft | 411 kts | 85° |
| 2026-05-07 18:12 | 36.97029 | 31.62627 | 20179 ft | 415 kts | 85° |
| 2026-05-07 18:12 | 36.97023 | 31.66254 | 20745 ft | 420 kts | 86° |
| 2026-05-07 18:12 | 36.97007 | 31.69918 | 21312 ft | 423 kts | 86° |
| 2026-05-07 18:13 | 36.96989 | 31.73617 | 21858 ft | 427 kts | 86° |
| 2026-05-07 18:13 | 36.96966 | 31.77290 | 22378 ft | 431 kts | 86° |
| 2026-05-07 18:13 | 36.96936 | 31.81059 | 22887 ft | 435 kts | 86° |
| 2026-05-07 18:13 | 36.96777 | 31.84849 | 23373 ft | 442 kts | 95° |
| 2026-05-07 18:14 | 36.95900 | 31.88570 | 23857 ft | 451 kts | 111° |
| 2026-05-07 18:14 | 36.94263 | 31.91935 | 24325 ft | 457 kts | 127° |
| 2026-05-07 18:14 | 36.92276 | 31.95059 | 24778 ft | 460 kts | 122° |
| 2026-05-07 18:14 | 36.90856 | 31.98638 | 25176 ft | 461 kts | 106° |
| 2026-05-07 18:15 | 36.90141 | 32.02524 | 25628 ft | 459 kts | 96° |
| 2026-05-07 18:15 | 36.89799 | 32.06437 | 26043 ft | 460 kts | 91° |
| 2026-05-07 18:15 | 36.89661 | 32.10431 | 26446 ft | 462 kts | 87° |
| 2026-05-07 18:15 | 36.89631 | 32.14448 | 26814 ft | 465 kts | 87° |
| 2026-05-07 18:16 | 36.89564 | 32.18511 | 27206 ft | 469 kts | 87° |
| 2026-05-07 18:16 | 36.89469 | 32.22599 | 27581 ft | 472 kts | 88° |
| 2026-05-07 18:16 | 36.89363 | 32.26703 | 27969 ft | 474 kts | 88° |
| 2026-05-07 18:16 | 36.89251 | 32.30832 | 28316 ft | 477 kts | 88° |
| 2026-05-07 18:17 | 36.89136 | 32.34983 | 28660 ft | 480 kts | 88° |
| 2026-05-07 18:17 | 36.89019 | 32.39162 | 29027 ft | 482 kts | 88° |
| 2026-05-07 18:17 | 36.88904 | 32.43298 | 29342 ft | 485 kts | 88° |
| 2026-05-07 18:17 | 36.88787 | 32.47520 | 29650 ft | 488 kts | 88° |
| 2026-05-07 18:18 | 36.88668 | 32.51762 | 29943 ft | 491 kts | 88° |
| 2026-05-07 18:18 | 36.88546 | 32.56031 | 30241 ft | 493 kts | 88° |
| 2026-05-07 18:18 | 36.88420 | 32.60317 | 30564 ft | 494 kts | 88° |
| 2026-05-07 18:18 | 36.88293 | 32.64610 | 30949 ft | 494 kts | 88° |
| 2026-05-07 18:19 | 36.88164 | 32.68897 | 31345 ft | 494 kts | 88° |
| 2026-05-07 18:19 | 36.88034 | 32.73176 | 31691 ft | 494 kts | 88° |
| 2026-05-07 18:19 | 36.87904 | 32.77414 | 32053 ft | 494 kts | 88° |
| 2026-05-07 18:19 | 36.87772 | 32.81692 | 32422 ft | 493 kts | 89° |
| 2026-05-07 18:20 | 36.87639 | 32.85987 | 32665 ft | 496 kts | 89° |
| 2026-05-07 18:20 | 36.87515 | 32.90281 | 33007 ft | 495 kts | 88° |
| 2026-05-07 18:20 | 36.87431 | 32.94586 | 33386 ft | 494 kts | 88° |
| 2026-05-07 18:20 | 36.87315 | 32.98872 | 33750 ft | 494 kts | 89° |
| 2026-05-07 18:21 | 36.87182 | 33.03157 | 34095 ft | 493 kts | 89° |
| 2026-05-07 18:21 | 36.87043 | 33.07434 | 34386 ft | 494 kts | 89° |
| 2026-05-07 18:21 | 36.86898 | 33.11723 | 34662 ft | 495 kts | 90° |
| 2026-05-07 18:21 | 36.86752 | 33.16015 | 35018 ft | 493 kts | 90° |
| 2026-05-07 18:22 | 36.86610 | 33.20233 | 35381 ft | 492 kts | 89° |
| 2026-05-07 18:22 | 36.86676 | 33.23097 | 35577 ft | 488 kts | 80° |
| 2026-05-07 18:22 | 36.87858 | 33.28419 | 35930 ft | 477 kts | 60° |
| 2026-05-07 18:22 | 36.89590 | 33.31920 | 36063 ft | 471 kts | 47° |
| 2026-05-07 18:23 | 36.91730 | 33.34991 | 36354 ft | 467 kts | 42° |
| 2026-05-07 18:23 | 36.93972 | 33.37877 | 36879 ft | 459 kts | 39° |
| 2026-05-07 18:23 | 36.96290 | 33.40617 | 37123 ft | 458 kts | 37° |
| 2026-05-07 18:23 | 36.98638 | 33.43323 | 37224 ft | 461 kts | 37° |
| 2026-05-07 18:24 | 37.00969 | 33.46007 | 37229 ft | 462 kts | 37° |
| 2026-05-07 18:24 | 37.05677 | 33.51436 | 37230 ft | 458 kts | 37° |
| 2026-05-07 18:25 | 37.10385 | 33.56871 | 37232 ft | 462 kts | 38° |
| 2026-05-07 18:25 | 37.15120 | 33.62294 | 37231 ft | 459 kts | 37° |
| 2026-05-07 18:26 | 37.19796 | 33.67678 | 37229 ft | 461 kts | 38° |
| 2026-05-07 18:26 | 37.24533 | 33.73118 | 37229 ft | 462 kts | 38° |
| 2026-05-07 18:27 | 37.29249 | 33.78587 | 37229 ft | 462 kts | 38° |
| 2026-05-07 18:27 | 37.33958 | 33.84073 | 37229 ft | 461 kts | 38° |
| 2026-05-07 18:28 | 37.38670 | 33.89570 | 37227 ft | 464 kts | 38° |
| 2026-05-07 18:28 | 37.43381 | 33.95069 | 37226 ft | 465 kts | 38° |
| 2026-05-07 18:29 | 37.48105 | 34.00601 | 37224 ft | 463 kts | 38° |
| 2026-05-07 18:29 | 37.52833 | 34.06156 | 37220 ft | 466 kts | 38° |
| 2026-05-07 18:30 | 37.57575 | 34.11740 | 37216 ft | 468 kts | 39° |
| 2026-05-07 18:30 | 37.62293 | 34.17305 | 37220 ft | 467 kts | 39° |
| 2026-05-07 18:31 | 37.67013 | 34.22864 | 37218 ft | 462 kts | 38° |
| 2026-05-07 18:31 | 37.71753 | 34.28392 | 37210 ft | 466 kts | 39° |
| 2026-05-07 18:32 | 37.76501 | 34.34012 | 37203 ft | 468 kts | 39° |
| 2026-05-07 18:32 | 37.81201 | 34.39598 | 37209 ft | 465 kts | 39° |
| 2026-05-07 18:33 | 37.85878 | 34.45166 | 37214 ft | 460 kts | 39° |
| 2026-05-07 18:33 | 37.90552 | 34.50736 | 37192 ft | 464 kts | 39° |
| 2026-05-07 18:34 | 37.95282 | 34.56360 | 37179 ft | 469 kts | 39° |
| 2026-05-07 18:34 | 38.00019 | 34.62012 | 37184 ft | 465 kts | 39° |
| 2026-05-07 18:35 | 38.04679 | 34.67558 | 37187 ft | 460 kts | 38° |
| 2026-05-07 18:35 | 38.09378 | 34.73128 | 37166 ft | 465 kts | 39° |
| 2026-05-07 18:36 | 38.14112 | 34.78805 | 37154 ft | 469 kts | 39° |
| 2026-05-07 18:36 | 38.18825 | 34.84475 | 37166 ft | 463 kts | 39° |
| 2026-05-07 18:37 | 38.23469 | 34.90070 | 37171 ft | 459 kts | 39° |
| 2026-05-07 18:37 | 38.28088 | 34.95637 | 37158 ft | 463 kts | 39° |
| 2026-05-07 18:38 | 38.32817 | 35.01299 | 37161 ft | 470 kts | 39° |
| 2026-05-07 18:38 | 38.37547 | 35.06984 | 37173 ft | 463 kts | 38° |
| 2026-05-07 18:39 | 38.42430 | 35.12209 | 37179 ft | 457 kts | 35° |
| 2026-05-07 18:39 | 38.47319 | 35.17429 | 37172 ft | 461 kts | 36° |
| 2026-05-07 18:40 | 38.52221 | 35.22711 | 37179 ft | 465 kts | 37° |
| 2026-05-07 18:40 | 38.56881 | 35.28421 | 37187 ft | 463 kts | 41° |
| 2026-05-07 18:41 | 38.61365 | 35.34277 | 37191 ft | 459 kts | 41° |
| 2026-05-07 18:41 | 38.65869 | 35.40078 | 37184 ft | 461 kts | 41° |
| 2026-05-07 18:42 | 38.70392 | 35.45887 | 37195 ft | 464 kts | 41° |
| 2026-05-07 18:42 | 38.74958 | 35.51666 | 37196 ft | 460 kts | 40° |
| 2026-05-07 18:43 | 38.79500 | 35.57482 | 37194 ft | 463 kts | 41° |
| 2026-05-07 18:43 | 38.84045 | 35.63340 | 37185 ft | 464 kts | 41° |
| 2026-05-07 18:44 | 38.88571 | 35.69190 | 37178 ft | 464 kts | 41° |
| 2026-05-07 18:44 | 38.93108 | 35.75054 | 37171 ft | 462 kts | 41° |
| 2026-05-07 18:45 | 38.97702 | 35.80838 | 37161 ft | 461 kts | 39° |
| 2026-05-07 18:45 | 39.02302 | 35.86507 | 37152 ft | 462 kts | 40° |
| 2026-05-07 18:46 | 39.06918 | 35.92262 | 37148 ft | 462 kts | 40° |
| 2026-05-07 18:46 | 39.11525 | 35.98023 | 37145 ft | 462 kts | 40° |
| 2026-05-07 18:47 | 39.15370 | 36.02834 | 37147 ft | 466 kts | 40° |
| 2026-05-07 18:47 | 39.19893 | 36.08844 | 37148 ft | 467 kts | 43° |
| 2026-05-07 18:48 | 39.25095 | 36.15910 | 37155 ft | 468 kts | 43° |
| 2026-05-07 18:48 | 39.29603 | 36.21967 | 37158 ft | 468 kts | 42° |
| 2026-05-07 18:49 | 39.33356 | 36.26997 | 37164 ft | 468 kts | 43° |
| 2026-05-07 18:49 | 39.37857 | 36.33093 | 37167 ft | 469 kts | 43° |
| 2026-05-07 18:50 | 39.42349 | 36.39200 | 37182 ft | 468 kts | 43° |
| 2026-05-07 18:50 | 39.46807 | 36.45270 | 37192 ft | 468 kts | 43° |
| 2026-05-07 18:51 | 39.51304 | 36.51400 | 37208 ft | 471 kts | 43° |
| 2026-05-07 18:51 | 39.55805 | 36.57554 | 37218 ft | 470 kts | 43° |
| 2026-05-07 18:52 | 39.60311 | 36.63665 | 37226 ft | 469 kts | 43° |
| 2026-05-07 18:52 | 39.64792 | 36.69806 | 37231 ft | 469 kts | 44° |
| 2026-05-07 18:53 | 39.69238 | 36.75933 | 37238 ft | 469 kts | 44° |
| 2026-05-07 18:53 | 39.73707 | 36.82104 | 37244 ft | 469 kts | 43° |
| 2026-05-07 18:54 | 39.78207 | 36.88245 | 37250 ft | 468 kts | 40° |
| 2026-05-07 18:54 | 39.83201 | 36.93636 | 37250 ft | 465 kts | 34° |
| 2026-05-07 18:55 | 39.88297 | 36.98707 | 37241 ft | 464 kts | 34° |
| 2026-05-07 18:55 | 39.93406 | 37.03825 | 37224 ft | 462 kts | 34° |
| 2026-05-07 18:56 | 39.98515 | 37.08908 | 37215 ft | 463 kts | 34° |
| 2026-05-07 18:56 | 40.03650 | 37.14051 | 37215 ft | 466 kts | 35° |
| 2026-05-07 18:57 | 40.08773 | 37.19222 | 37211 ft | 464 kts | 35° |
| 2026-05-07 18:57 | 40.13805 | 37.24315 | 37206 ft | 458 kts | 35° |
| 2026-05-07 18:58 | 40.18848 | 37.29423 | 37210 ft | 460 kts | 35° |
| 2026-05-07 18:58 | 40.23949 | 37.34603 | 36845 ft | 469 kts | 35° |
| 2026-05-07 18:58 | 40.26525 | 37.37226 | 36141 ft | 468 kts | 35° |
| 2026-05-07 18:59 | 40.29093 | 37.39844 | 35534 ft | 466 kts | 35° |
| 2026-05-07 18:59 | 40.31603 | 37.42407 | 35040 ft | 461 kts | 35° |
| 2026-05-07 18:59 | 40.34122 | 37.44975 | 34552 ft | 456 kts | 35° |
| 2026-05-07 18:59 | 40.36625 | 37.47492 | 34073 ft | 451 kts | 35° |
| 2026-05-07 19:00 | 40.39095 | 37.50001 | 33601 ft | 447 kts | 35° |
| 2026-05-07 19:00 | 40.41534 | 37.52494 | 33140 ft | 443 kts | 35° |
| 2026-05-07 19:00 | 40.43949 | 37.54970 | 32681 ft | 438 kts | 36° |
| 2026-05-07 19:00 | 40.46343 | 37.57429 | 32221 ft | 434 kts | 36° |
| 2026-05-07 19:01 | 40.48708 | 37.59863 | 31774 ft | 430 kts | 36° |
| 2026-05-07 19:01 | 40.51037 | 37.62260 | 31518 ft | 421 kts | 36° |
| 2026-05-07 19:01 | 40.53289 | 37.64579 | 31268 ft | 412 kts | 36° |
| 2026-05-07 19:01 | 40.55520 | 37.66878 | 30992 ft | 405 kts | 36° |
| 2026-05-07 19:02 | 40.57731 | 37.69154 | 30583 ft | 401 kts | 36° |
| 2026-05-07 19:02 | 40.59915 | 37.71411 | 30172 ft | 398 kts | 36° |
| 2026-05-07 19:02 | 40.62083 | 37.73647 | 29763 ft | 394 kts | 36° |
| 2026-05-07 19:02 | 40.64231 | 37.75874 | 29350 ft | 392 kts | 36° |
| 2026-05-07 19:03 | 40.66366 | 37.78082 | 28937 ft | 389 kts | 36° |
| 2026-05-07 19:03 | 40.68487 | 37.80273 | 28527 ft | 386 kts | 36° |
| 2026-05-07 19:03 | 40.70556 | 37.82419 | 28122 ft | 383 kts | 36° |
| 2026-05-07 19:03 | 40.72642 | 37.84585 | 27711 ft | 381 kts | 36° |
| 2026-05-07 19:04 | 40.74715 | 37.86736 | 27304 ft | 378 kts | 36° |
| 2026-05-07 19:04 | 40.76775 | 37.88882 | 26897 ft | 375 kts | 36° |
| 2026-05-07 19:04 | 40.78818 | 37.91000 | 26494 ft | 372 kts | 36° |
| 2026-05-07 19:04 | 40.80846 | 37.93109 | 26094 ft | 369 kts | 37° |
| 2026-05-07 19:05 | 40.82851 | 37.95205 | 25695 ft | 366 kts | 37° |
| 2026-05-07 19:05 | 40.84840 | 37.97285 | 25297 ft | 363 kts | 37° |
| 2026-05-07 19:05 | 40.86789 | 37.99322 | 24909 ft | 361 kts | 37° |
| 2026-05-07 19:05 | 40.88749 | 38.01371 | 24523 ft | 358 kts | 37° |
| 2026-05-07 19:06 | 40.90740 | 38.03312 | 24135 ft | 355 kts | 34° |
| 2026-05-07 19:06 | 40.94769 | 38.07028 | 23355 ft | 350 kts | 34° |
| 2026-05-07 19:06 | 40.96743 | 38.08888 | 22967 ft | 348 kts | 36° |
| 2026-05-07 19:07 | 40.98641 | 38.10871 | 22575 ft | 346 kts | 40° |
| 2026-05-07 19:07 | 41.00461 | 38.12929 | 22188 ft | 344 kts | 40° |
| 2026-05-07 19:07 | 41.02252 | 38.14945 | 21810 ft | 342 kts | 40° |
| 2026-05-07 19:07 | 41.04064 | 38.16967 | 21428 ft | 339 kts | 40° |
| 2026-05-07 19:08 | 41.05868 | 38.18972 | 21049 ft | 338 kts | 40° |
| 2026-05-07 19:08 | 41.07662 | 38.20964 | 20671 ft | 336 kts | 40° |
| 2026-05-07 19:08 | 41.09452 | 38.22948 | 20291 ft | 334 kts | 39° |
| 2026-05-07 19:08 | 41.11184 | 38.24985 | 19908 ft | 333 kts | 47° |
| 2026-05-07 19:09 | 41.12407 | 38.27567 | 19540 ft | 332 kts | 68° |
| 2026-05-07 19:09 | 41.12890 | 38.30554 | 19100 ft | 334 kts | 85° |
| 2026-05-07 19:09 | 41.12877 | 38.33634 | 18707 ft | 334 kts | 92° |
| 2026-05-07 19:09 | 41.12655 | 38.36652 | 18327 ft | 333 kts | 96° |
| 2026-05-07 19:10 | 41.12352 | 38.39696 | 17947 ft | 332 kts | 96° |
| 2026-05-07 19:10 | 41.12067 | 38.42731 | 17569 ft | 331 kts | 96° |
| 2026-05-07 19:10 | 41.11797 | 38.45756 | 17193 ft | 330 kts | 95° |
| 2026-05-07 19:10 | 41.11536 | 38.48768 | 16817 ft | 328 kts | 95° |
| 2026-05-07 19:11 | 41.11279 | 38.51767 | 16446 ft | 327 kts | 95° |
| 2026-05-07 19:11 | 41.11024 | 38.54752 | 16079 ft | 325 kts | 95° |
| 2026-05-07 19:11 | 41.10771 | 38.57727 | 15713 ft | 324 kts | 95° |
| 2026-05-07 19:11 | 41.10518 | 38.60692 | 15348 ft | 322 kts | 95° |
| 2026-05-07 19:12 | 41.10269 | 38.63594 | 14989 ft | 321 kts | 95° |
| 2026-05-07 19:12 | 41.10014 | 38.66528 | 14625 ft | 320 kts | 95° |
| 2026-05-07 19:12 | 41.09759 | 38.69455 | 14255 ft | 319 kts | 95° |
| 2026-05-07 19:12 | 41.09513 | 38.72368 | 13887 ft | 318 kts | 95° |
| 2026-05-07 19:13 | 41.09270 | 38.75275 | 13523 ft | 317 kts | 95° |
| 2026-05-07 19:13 | 41.09018 | 38.78163 | 13162 ft | 315 kts | 96° |
| 2026-05-07 19:13 | 41.08759 | 38.81048 | 12803 ft | 314 kts | 96° |
| 2026-05-07 19:13 | 41.08499 | 38.83913 | 12445 ft | 313 kts | 96° |
| 2026-05-07 19:14 | 41.08236 | 38.86773 | 12090 ft | 312 kts | 96° |
| 2026-05-07 19:14 | 41.07973 | 38.89615 | 11737 ft | 310 kts | 96° |
| 2026-05-07 19:14 | 41.07714 | 38.92408 | 11386 ft | 309 kts | 96° |
| 2026-05-07 19:14 | 41.07452 | 38.95217 | 11196 ft | 305 kts | 96° |
| 2026-05-07 19:15 | 41.07194 | 38.97984 | 11129 ft | 299 kts | 96° |
| 2026-05-07 19:15 | 41.06941 | 39.00693 | 11113 ft | 292 kts | 96° |
| 2026-05-07 19:15 | 41.06696 | 39.03309 | 11105 ft | 280 kts | 96° |
| 2026-05-07 19:15 | 41.06462 | 39.05813 | 11098 ft | 268 kts | 96° |
| 2026-05-07 19:16 | 41.06238 | 39.08205 | 11092 ft | 256 kts | 96° |
| 2026-05-07 19:16 | 41.06022 | 39.10517 | 11094 ft | 249 kts | 96° |
| 2026-05-07 19:16 | 41.05884 | 39.12749 | 11092 ft | 245 kts | 87° |
| 2026-05-07 19:16 | 41.06148 | 39.14949 | 11109 ft | 240 kts | 74° |
| 2026-05-07 19:17 | 41.06667 | 39.17053 | 11129 ft | 241 kts | 68° |
| 2026-05-07 19:17 | 41.07301 | 39.19121 | 11141 ft | 244 kts | 66° |
| 2026-05-07 19:17 | 41.07943 | 39.21209 | 11055 ft | 245 kts | 67° |
| 2026-05-07 19:17 | 41.08579 | 39.23302 | 10920 ft | 244 kts | 67° |
| 2026-05-07 19:18 | 41.09210 | 39.25382 | 10647 ft | 244 kts | 67° |
| 2026-05-07 19:18 | 41.09838 | 39.27477 | 10378 ft | 244 kts | 67° |
| 2026-05-07 19:18 | 41.10461 | 39.29568 | 10119 ft | 244 kts | 67° |
| 2026-05-07 19:18 | 41.11081 | 39.31654 | 9864 ft | 243 kts | 67° |
| 2026-05-07 19:19 | 41.11692 | 39.33710 | 9612 ft | 242 kts | 68° |
| 2026-05-07 19:19 | 41.12308 | 39.35787 | 9358 ft | 242 kts | 68° |
| 2026-05-07 19:19 | 41.12847 | 39.37892 | 9095 ft | 242 kts | 80° |
| 2026-05-07 19:19 | 41.12598 | 39.40041 | 8941 ft | 237 kts | 117° |
| 2026-05-07 19:20 | 41.11449 | 39.41474 | 8880 ft | 225 kts | 155° |
| 2026-05-07 19:20 | 41.09954 | 39.41617 | 8788 ft | 213 kts | 195° |
| 2026-05-07 19:20 | 41.08761 | 39.40530 | 8454 ft | 213 kts | 229° |
| 2026-05-07 19:20 | 41.07950 | 39.38903 | 8101 ft | 215 kts | 240° |
| 2026-05-07 19:21 | 41.07282 | 39.37129 | 7801 ft | 215 kts | 245° |
| 2026-05-07 19:21 | 41.06697 | 39.35350 | 7619 ft | 208 kts | 248° |
| 2026-05-07 19:21 | 41.06151 | 39.33581 | 7311 ft | 208 kts | 248° |
| 2026-05-07 19:21 | 41.05608 | 39.31803 | 7011 ft | 208 kts | 248° |
| 2026-05-07 19:22 | 41.05276 | 39.29965 | 6678 ft | 207 kts | 274° |
| 2026-05-07 19:22 | 41.05867 | 39.28270 | 6338 ft | 207 kts | 315° |
| 2026-05-07 19:22 | 41.07173 | 39.27589 | 6154 ft | 207 kts | 359° |
| 2026-05-07 19:22 | 41.08531 | 39.28125 | 6180 ft | 204 kts | 22° |
| 2026-05-07 19:23 | 41.09747 | 39.29050 | 6175 ft | 206 kts | 37° |
| 2026-05-07 19:23 | 41.10684 | 39.30489 | 6172 ft | 209 kts | 57° |
| 2026-05-07 19:23 | 41.11340 | 39.32211 | 6181 ft | 209 kts | 65° |
| 2026-05-07 19:23 | 41.11883 | 39.34001 | 6164 ft | 209 kts | 69° |
| 2026-05-07 19:24 | 41.12368 | 39.35843 | 5979 ft | 213 kts | 72° |
| 2026-05-07 19:24 | 41.12514 | 39.37769 | 5685 ft | 211 kts | 102° |
| 2026-05-07 19:24 | 41.11762 | 39.39369 | 5410 ft | 206 kts | 141° |
| 2026-05-07 19:24 | 41.10448 | 39.39965 | 5166 ft | 202 kts | 176° |
| 2026-05-07 19:25 | 41.09057 | 39.40158 | 4964 ft | 203 kts | 160° |
| 2026-05-07 19:25 | 41.07976 | 39.41267 | 4694 ft | 202 kts | 124° |
| 2026-05-07 19:25 | 41.07575 | 39.43026 | 4458 ft | 202 kts | 96° |
| 2026-05-07 19:25 | 41.07538 | 39.44882 | 4240 ft | 201 kts | 91° |
| 2026-05-07 19:26 | 41.07545 | 39.46719 | 4079 ft | 199 kts | 90° |
| 2026-05-07 19:26 | 41.07553 | 39.48554 | 3990 ft | 200 kts | 90° |
| 2026-05-07 19:26 | 41.07557 | 39.50392 | 3886 ft | 199 kts | 90° |
| 2026-05-07 19:26 | 41.07560 | 39.52223 | 3786 ft | 199 kts | 90° |
| 2026-05-07 19:27 | 41.07527 | 39.54051 | 3681 ft | 198 kts | 98° |
| 2026-05-07 19:27 | 41.07141 | 39.55764 | 3578 ft | 197 kts | 116° |
| 2026-05-07 19:27 | 41.06503 | 39.57368 | 3464 ft | 197 kts | 117° |
| 2026-05-07 19:27 | 41.05868 | 39.58976 | 3308 ft | 196 kts | 117° |
| 2026-05-07 19:28 | 41.05246 | 39.60579 | 3121 ft | 196 kts | 115° |
| 2026-05-07 19:28 | 41.04695 | 39.62228 | 2841 ft | 197 kts | 112° |
| 2026-05-07 19:28 | 41.04173 | 39.63901 | 2488 ft | 196 kts | 112° |
| 2026-05-07 19:28 | 41.03659 | 39.65560 | 2190 ft | 192 kts | 111° |
| 2026-05-07 19:29 | 41.03163 | 39.67162 | 1918 ft | 184 kts | 111° |
| 2026-05-07 19:29 | 41.02690 | 39.68689 | 1648 ft | 174 kts | 111° |
| 2026-05-07 19:29 | 41.02251 | 39.70108 | 1413 ft | 163 kts | 111° |
| 2026-05-07 19:29 | 41.01834 | 39.71455 | 1173 ft | 153 kts | 111° |
| 2026-05-07 19:30 | 41.01438 | 39.72736 | 951 ft | 148 kts | 112° |
| 2026-05-07 19:30 | 41.01050 | 39.73989 | 735 ft | 145 kts | 112° |
| 2026-05-07 19:30 | 41.00684 | 39.75229 | 549 ft | 144 kts | 112° |
| 2026-05-07 19:30 | 41.00290 | 39.76437 | 360 ft | 143 kts | 114° |
| 2026-05-07 19:31 | 40.99908 | 39.77669 | 138 ft | 144 kts | 112° |
| 2026-05-07 19:31 | 40.99569 | 39.78770 | 113 ft | 103 kts | 113° |
| 2026-05-07 19:31 | 40.99393 | 39.79335 | 112 ft | 45 kts | 112° |
| 2026-05-07 19:31 | 40.99307 | 39.79611 | 112 ft | 29 kts | 111° |
| 2026-05-07 19:32 | 40.99234 | 39.79851 | 112 ft | 27 kts | 113° |
| 2026-05-07 19:32 | 40.99165 | 39.80067 | 112 ft | 24 kts | 111° |
| 2026-05-07 19:32 | 40.99118 | 39.80257 | 112 ft | 19 kts | 105° |
| 2026-05-07 19:32 | 40.99079 | 39.80381 | 112 ft | 13 kts | 139° |
| 2026-05-07 19:33 | 40.99061 | 39.80347 | 112 ft | 8 kts | 313° |
| 2026-05-07 19:33 | 40.99102 | 39.80273 | 112 ft | 11 kts | 293° |
| 2026-05-07 19:33 | 40.99130 | 39.80185 | 112 ft | 10 kts | 292° |
| 2026-05-07 19:33 | 40.99157 | 39.80100 | 112 ft | 10 kts | 292° |
| 2026-05-07 19:34 | 40.99184 | 39.80014 | 112 ft | 10 kts | 292° |
| 2026-05-07 19:34 | 40.99213 | 39.79924 | 112 ft | 11 kts | 292° |
| 2026-05-07 19:34 | 40.99243 | 39.79823 | 112 ft | 14 kts | 290° |
| 2026-05-07 19:34 | 40.99284 | 39.79687 | 112 ft | 16 kts | 292° |
| 2026-05-07 19:35 | 40.99325 | 39.79554 | 112 ft | 15 kts | 292° |
| 2026-05-07 19:35 | 40.99364 | 39.79429 | 112 ft | 14 kts | 291° |
| 2026-05-07 19:35 | 40.99391 | 39.79333 | 112 ft | 9 kts | 278° |
| 2026-05-07 19:35 | 40.99375 | 39.79252 | 112 ft | 10 kts | 245° |
| 2026-05-07 19:36 | 40.99345 | 39.79162 | 112 ft | 12 kts | 250° |
| 2026-05-07 19:36 | 40.99335 | 39.79051 | 112 ft | 13 kts | 282° |
| 2026-05-07 19:36 | 40.99369 | 39.78935 | 112 ft | 13 kts | 293° |
| 2026-05-07 19:36 | 40.99404 | 39.78825 | 112 ft | 13 kts | 292° |
| 2026-05-07 19:37 | 40.99436 | 39.78719 | 112 ft | 12 kts | 292° |
| 2026-05-07 19:37 | 40.99462 | 39.78636 | 112 ft | 5 kts | 292° |
| 2026-05-07 19:37 | 40.99454 | 39.78594 | 112 ft | 5 kts | 223° |
| 2026-05-07 19:37 | 40.99417 | 39.78571 | 112 ft | 5 kts | 201° |
| 2026-05-07 19:38 | 40.99410 | 39.78567 | 112 ft | 0 kts | 200° |